createdAt,value
2023-03-02T00:01:56.954Z,75129.74
2023-03-02T00:04:47.953Z,75129.75
2023-03-02T00:07:42.731Z,75132.58
2023-03-02T00:10:11.938Z,75130.96
2023-03-02T00:12:40.467Z,75128.53
2023-03-02T00:15:09.519Z,75124.49
2023-03-02T00:17:38.074Z,75127.33
2023-03-02T00:20:10.493Z,75124.09
2023-03-02T00:22:41.135Z,75116.01
2023-03-02T00:25:10.399Z,75107.93
2023-03-02T00:27:39.424Z,75102.67
2023-03-02T00:30:09.360Z,75090.15
2023-03-02T00:32:37.889Z,75084.50
2023-03-02T00:35:07.129Z,75071.16
2023-03-02T00:37:36.916Z,75061.87
2023-03-02T00:40:07.595Z,75044.48
2023-03-02T00:42:38.966Z,75033.98
2023-03-02T00:45:08.087Z,75025.10
2023-03-02T00:47:37.634Z,75015.80
2023-03-02T00:50:06.852Z,75009.75
2023-03-02T00:52:35.220Z,75002.48
2023-03-02T00:55:03.867Z,74998.03
2023-03-02T00:57:32.176Z,74992.77
2023-03-02T01:00:01.276Z,74993.59
2023-03-02T01:02:35.301Z,74995.61
2023-03-02T01:05:05.376Z,74997.23
2023-03-02T01:07:34.956Z,74996.02
2023-03-02T01:10:03.904Z,74991.56
2023-03-02T01:12:33.078Z,74987.12
2023-03-02T01:15:02.522Z,74985.10
2023-03-02T01:17:30.904Z,74989.95
2023-03-02T01:19:59.421Z,74990.76
2023-03-02T01:22:27.920Z,74991.56
2023-03-02T01:24:56.282Z,75000.45
2023-03-02T01:27:24.621Z,75007.33
2023-03-02T01:29:53.037Z,75016.62
2023-03-02T01:32:21.669Z,75031.16
2023-03-02T01:34:50.036Z,75043.69
2023-03-02T01:37:18.553Z,75065.50
2023-03-02T01:39:47.396Z,75078.02
2023-03-02T01:42:16.440Z,75087.33
2023-03-02T01:44:47.747Z,75096.62
2023-03-02T01:47:37.106Z,75111.98
2023-03-02T01:50:23.485Z,75123.29
2023-03-02T01:52:55.775Z,75136.21
2023-03-02T01:55:29.878Z,75145.10
2023-03-02T01:58:00.124Z,75154.80
2023-03-02T02:00:32.998Z,75164.90
2023-03-02T02:03:09.598Z,75180.26
2023-03-02T02:05:40.713Z,75191.16
2023-03-02T02:08:09.156Z,75199.65
2023-03-02T02:10:38.691Z,75214.20
2023-03-02T02:13:11.146Z,75223.89
2023-03-02T02:15:41.204Z,75234.80
2023-03-02T02:18:09.975Z,75244.91
2023-03-02T02:20:45.514Z,75251.77
2023-03-02T02:23:18.618Z,75257.84
2023-03-02T02:25:53.104Z,75263.90
2023-03-02T02:28:30.890Z,75267.94
2023-03-02T02:31:18.070Z,75268.75
2023-03-02T02:33:52.946Z,75272.38
2023-03-02T02:36:33.893Z,75274.40
2023-03-02T02:39:07.320Z,75280.86
2023-03-02T02:41:39.356Z,75286.92
2023-03-02T02:44:14.848Z,75292.98
2023-03-02T02:46:44.970Z,75299.05
2023-03-02T02:49:33.665Z,75304.71
2023-03-02T02:52:04.148Z,75311.98
2023-03-02T02:54:34.510Z,75319.25
2023-03-02T02:57:04.324Z,75322.09
2023-03-02T02:59:37.707Z,75321.27
2023-03-02T03:02:06.192Z,75323.70
2023-03-02T03:04:34.690Z,75327.34
2023-03-02T03:07:05.380Z,75326.13
2023-03-02T03:09:34.920Z,75328.95
2023-03-02T03:12:14.377Z,75332.59
2023-03-02T03:14:44.017Z,75332.99
2023-03-02T03:17:12.900Z,75334.20
2023-03-02T03:19:47.406Z,75337.84
2023-03-02T03:22:16.640Z,75337.04
2023-03-02T03:24:46.152Z,75341.88
2023-03-02T03:27:16.435Z,75347.14
2023-03-02T03:29:48.490Z,75355.63
2023-03-02T03:32:19.267Z,75361.67
2023-03-02T03:34:48.692Z,75373.00
2023-03-02T03:37:27.020Z,75383.91
2023-03-02T03:39:55.967Z,75393.60
2023-03-02T03:42:24.384Z,75396.84
2023-03-02T03:44:53.361Z,75398.86
2023-03-02T03:47:22.877Z,75406.54
2023-03-02T03:49:51.766Z,75411.39
2023-03-02T03:52:30.846Z,75409.36
2023-03-02T03:55:06.393Z,75413.81
2023-03-02T03:57:34.841Z,75409.77
2023-03-02T04:00:08.904Z,75413.81
2023-03-02T04:02:42.600Z,75418.66
2023-03-02T04:05:13.000Z,75421.89
2023-03-02T04:07:42.064Z,75421.09
2023-03-02T04:10:12.493Z,75417.45
2023-03-02T04:12:42.829Z,75413.80
2023-03-02T04:15:16.547Z,75406.94
2023-03-02T04:17:46.501Z,75395.63
2023-03-02T04:20:18.693Z,75388.35
2023-03-02T04:22:52.949Z,75379.86
2023-03-02T04:25:24.430Z,75373.40
2023-03-02T04:27:55.887Z,75372.19
2023-03-02T04:30:27.980Z,75377.45
2023-03-02T04:32:57.699Z,75375.02
2023-03-02T04:35:28.374Z,75373.80
2023-03-02T04:37:56.841Z,75378.65
2023-03-02T04:40:25.665Z,75379.45
2023-03-02T04:42:53.990Z,75372.19
2023-03-02T04:45:22.435Z,75367.34
2023-03-02T04:47:51.461Z,75361.28
2023-03-02T04:50:19.858Z,75351.17
2023-03-02T04:52:48.922Z,75342.69
2023-03-02T04:55:23.082Z,75343.09
2023-03-02T04:57:51.904Z,75333.80
2023-03-02T05:00:21.207Z,75331.77
2023-03-02T05:02:50.097Z,75327.34
2023-03-02T05:05:23.309Z,75320.88
2023-03-02T05:07:52.669Z,75319.26
2023-03-02T05:10:22.472Z,75313.20
2023-03-02T05:13:05.152Z,75309.55
2023-03-02T05:15:36.147Z,75310.77
2023-03-02T05:18:06.744Z,75311.58
2023-03-02T05:20:35.512Z,75330.57
2023-03-02T05:23:07.349Z,75348.35
2023-03-02T05:25:37.630Z,75372.59
2023-03-02T05:28:06.282Z,75377.85
2023-03-02T05:30:37.873Z,75377.45
2023-03-02T05:33:06.727Z,75377.45
2023-03-02T05:35:35.711Z,75377.04
2023-03-02T05:38:05.288Z,75371.78
2023-03-02T05:40:34.072Z,75361.68
2023-03-02T05:43:02.521Z,75357.23
2023-03-02T05:45:37.738Z,75345.52
2023-03-02T05:48:06.645Z,75334.61
2023-03-02T05:50:35.291Z,75331.77
2023-03-02T05:53:04.074Z,75330.98
2023-03-02T05:55:37.358Z,75322.48
2023-03-02T05:58:14.617Z,75326.13
2023-03-02T06:00:44.058Z,75318.05
2023-03-02T06:03:12.559Z,75311.98
2023-03-02T06:05:41.160Z,75304.30
2023-03-02T06:08:10.034Z,75294.61
2023-03-02T06:10:38.387Z,75293.40
2023-03-02T06:13:06.729Z,75285.72
2023-03-02T06:15:35.798Z,75284.10
2023-03-02T06:18:06.169Z,75282.89
2023-03-02T06:20:34.596Z,75275.61
2023-03-02T06:23:02.885Z,75272.38
2023-03-02T06:25:31.680Z,75263.90
2023-03-02T06:27:59.955Z,75253.80
2023-03-02T06:30:28.526Z,75243.70
2023-03-02T06:32:56.904Z,75228.75
2023-03-02T06:35:25.455Z,75217.42
2023-03-02T06:37:54.090Z,75194.40
2023-03-02T06:40:22.366Z,75176.22
2023-03-02T06:42:51.282Z,75165.71
2023-03-02T06:45:19.803Z,75158.04
2023-03-02T06:47:48.409Z,75164.90
2023-03-02T06:50:16.796Z,75159.24
2023-03-02T06:52:45.093Z,75151.16
2023-03-02T06:55:13.610Z,75137.42
2023-03-02T06:57:42.005Z,75115.20
2023-03-02T07:00:18.373Z,75092.98
2023-03-02T07:02:50.282Z,75075.20
2023-03-02T07:05:19.675Z,75062.27
2023-03-02T07:07:48.109Z,75044.50
2023-03-02T07:10:16.703Z,75022.27
2023-03-02T07:12:45.126Z,74997.63
2023-03-02T07:15:14.524Z,74980.25
2023-03-02T07:17:44.949Z,74957.22
2023-03-02T07:20:16.649Z,74941.46
2023-03-02T07:22:45.433Z,74920.86
2023-03-02T07:25:14.354Z,74917.63
2023-03-02T07:27:43.024Z,74918.84
2023-03-02T07:30:12.227Z,74908.73
2023-03-02T07:32:41.244Z,74897.42
2023-03-02T07:35:10.221Z,74867.12
2023-03-02T07:37:38.840Z,74842.07
2023-03-02T07:40:07.939Z,74819.45
2023-03-02T07:42:36.826Z,74810.96
2023-03-02T07:45:06.611Z,74800.05
2023-03-02T07:47:35.001Z,74775.41
2023-03-02T07:50:03.960Z,74759.65
2023-03-02T07:52:32.337Z,74746.72
2023-03-02T07:55:00.734Z,74732.17
2023-03-02T07:57:29.132Z,74715.61
2023-03-02T07:59:57.407Z,74704.30
2023-03-02T08:02:25.925Z,74701.88
2023-03-02T08:04:54.470Z,74687.73
2023-03-02T08:07:22.855Z,74670.36
2023-03-02T08:09:51.340Z,74648.14
2023-03-02T08:12:19.734Z,74634.81
2023-03-02T08:14:48.309Z,74627.13
2023-03-02T08:17:16.710Z,74595.62
2023-03-02T08:19:45.174Z,74571.38
2023-03-02T08:22:13.593Z,74558.86
2023-03-02T08:24:42.980Z,74554.41
2023-03-02T08:27:15.853Z,74545.12
2023-03-02T08:29:44.260Z,74526.53
2023-03-02T08:32:12.769Z,74503.10
2023-03-02T08:34:41.224Z,74490.58
2023-03-02T08:37:09.652Z,74478.05
2023-03-02T08:39:38.178Z,74453.81
2023-03-02T08:42:06.492Z,74438.06
2023-03-02T08:44:34.892Z,74427.55
2023-03-02T08:47:03.415Z,74424.73
2023-03-02T08:49:31.836Z,74408.17
2023-03-02T08:52:00.903Z,74395.23
2023-03-02T08:54:29.245Z,74380.29
2023-03-02T08:56:57.703Z,74368.98
2023-03-02T08:59:27.093Z,74347.16
2023-03-02T09:01:55.599Z,74332.22
2023-03-02T09:04:24.118Z,74324.54
2023-03-02T09:06:52.555Z,74321.31
2023-03-02T09:09:20.950Z,74317.67
2023-03-02T09:11:49.377Z,74309.19
2023-03-02T09:14:17.806Z,74310.00
2023-03-02T09:16:47.196Z,74295.86
2023-03-02T09:19:15.652Z,74280.91
2023-03-02T09:21:44.085Z,74267.98
2023-03-02T09:24:12.592Z,74260.71
2023-03-02T09:26:41.058Z,74255.86
2023-03-02T09:29:09.621Z,74255.46
2023-03-02T09:31:38.659Z,74244.15
2023-03-02T09:34:07.201Z,74241.73
2023-03-02T09:36:36.791Z,74250.21
2023-03-02T09:39:12.501Z,74262.73
2023-03-02T09:42:12.275Z,74266.37
2023-03-02T09:45:06.552Z,74242.94
2023-03-02T09:47:56.521Z,74214.27
2023-03-02T09:50:32.631Z,74172.65
2023-03-02T09:53:24.550Z,74151.23
2023-03-02T09:56:00.449Z,74151.65
2023-03-02T09:58:36.097Z,74145.98
2023-03-02T10:01:12.565Z,74132.26
2023-03-02T10:03:51.454Z,74114.48
2023-03-02T10:06:20.085Z,74104.79
2023-03-02T10:08:54.170Z,74095.09
2023-03-02T10:11:25.619Z,74089.02
2023-03-02T10:13:53.924Z,74087.41
2023-03-02T10:17:02.057Z,74085.40
2023-03-02T10:19:47.960Z,74077.33
2023-03-02T10:22:24.282Z,74072.48
2023-03-02T10:25:13.384Z,74066.41
2023-03-02T10:27:51.968Z,74047.83
2023-03-02T10:30:35.600Z,74036.52
2023-03-02T10:33:12.356Z,74021.57
2023-03-02T10:35:48.546Z,74013.89
2023-03-02T10:38:19.982Z,73991.67
2023-03-02T10:40:48.539Z,73977.95
2023-03-02T10:43:30.461Z,73960.98
2023-03-02T10:46:04.836Z,73957.75
2023-03-02T10:48:49.342Z,73951.69
2023-03-02T10:51:29.724Z,73954.92
2023-03-02T10:54:05.024Z,73978.35
2023-03-02T10:56:34.862Z,74009.45
2023-03-02T10:59:19.768Z,74012.69
2023-03-02T11:02:18.572Z,74019.55
2023-03-02T11:04:47.177Z,74001.78
2023-03-02T11:07:18.982Z,73979.57
2023-03-02T11:10:04.980Z,73964.62
2023-03-02T11:12:37.090Z,73957.34
2023-03-02T11:15:28.742Z,73964.62
2023-03-02T11:18:34.412Z,73948.86
2023-03-02T11:21:06.654Z,73935.53
2023-03-02T11:24:17.219Z,73951.29
2023-03-02T11:26:50.829Z,73942.00
2023-03-02T11:29:31.951Z,73935.94
2023-03-02T11:32:11.859Z,73947.65
2023-03-02T11:34:56.768Z,73942.80
2023-03-02T11:37:45.644Z,73936.34
2023-03-02T11:40:36.434Z,73927.86
2023-03-02T11:43:05.210Z,73937.55
2023-03-02T11:45:37.188Z,73937.15
2023-03-02T11:48:24.085Z,73928.66
2023-03-02T11:50:57.591Z,73922.20
2023-03-02T11:53:51.901Z,73914.13
2023-03-02T11:56:20.468Z,73901.20
2023-03-02T11:58:55.114Z,73887.47
2023-03-02T12:01:27.034Z,73884.64
2023-03-02T12:04:08.254Z,73876.16
2023-03-02T12:06:42.314Z,73874.94
2023-03-02T12:09:22.846Z,73875.75
2023-03-02T12:12:18.609Z,73861.21
2023-03-02T12:14:47.028Z,73850.71
2023-03-02T12:17:27.326Z,73853.94
2023-03-02T12:20:10.151Z,73851.52
2023-03-02T12:22:39.102Z,73840.21
2023-03-02T12:25:27.369Z,73839.80
2023-03-02T12:27:58.800Z,73846.66
2023-03-02T12:30:28.656Z,73842.63
2023-03-02T12:33:11.141Z,73834.95
2023-03-02T12:35:40.336Z,73831.32
2023-03-02T12:38:17.629Z,73831.73
2023-03-02T12:41:04.295Z,73826.88
2023-03-02T12:43:35.583Z,73817.98
2023-03-02T12:46:27.853Z,73804.66
2023-03-02T12:49:15.548Z,73801.42
2023-03-02T12:51:55.048Z,73800.23
2023-03-02T12:54:25.988Z,73794.96
2023-03-02T12:57:14.260Z,73787.29
2023-03-02T12:59:43.682Z,73775.58
2023-03-02T13:02:17.654Z,73776.38
2023-03-02T13:05:03.655Z,73772.75
2023-03-02T13:07:38.271Z,73765.88
2023-03-02T13:10:27.034Z,73764.27
2023-03-02T13:12:55.532Z,73760.63
2023-03-02T13:15:24.293Z,73750.53
2023-03-02T13:17:58.209Z,73750.94
2023-03-02T13:20:30.424Z,73744.08
2023-03-02T13:22:59.269Z,73740.44
2023-03-02T13:25:30.640Z,73744.48
2023-03-02T13:28:07.538Z,73773.15
2023-03-02T13:30:41.923Z,73765.08
2023-03-02T13:33:22.799Z,73775.98
2023-03-02T13:35:52.725Z,73775.58
2023-03-02T13:38:26.605Z,73760.63
2023-03-02T13:40:56.081Z,73747.30
2023-03-02T13:43:34.269Z,73739.63
2023-03-02T13:46:24.407Z,73744.48
2023-03-02T13:49:10.774Z,73744.08
2023-03-02T13:51:45.808Z,73741.24
2023-03-02T13:54:25.732Z,73740.84
2023-03-02T13:56:55.566Z,73733.98
2023-03-02T13:59:24.355Z,73742.05
2023-03-02T14:01:53.387Z,73746.90
2023-03-02T14:04:23.704Z,73736.80
2023-03-02T14:06:54.858Z,73738.02
2023-03-02T14:09:23.264Z,73741.24
2023-03-02T14:11:55.422Z,73746.90
2023-03-02T14:14:26.615Z,73749.33
2023-03-02T14:16:58.461Z,73746.91
2023-03-02T14:19:27.284Z,73744.88
2023-03-02T14:21:55.631Z,73747.30
2023-03-02T14:24:24.247Z,73748.92
2023-03-02T14:26:52.658Z,73749.33
2023-03-02T14:29:28.598Z,73756.59
2023-03-02T14:32:04.150Z,73760.23
2023-03-02T14:34:35.985Z,73760.23
2023-03-02T14:37:08.050Z,73770.33
2023-03-02T14:39:39.372Z,73771.55
2023-03-02T14:42:20.004Z,73775.17
2023-03-02T14:44:50.369Z,73781.64
2023-03-02T14:47:19.805Z,73788.11
2023-03-02T14:49:49.457Z,73792.95
2023-03-02T14:52:26.544Z,73803.05
2023-03-02T14:54:59.049Z,73811.13
2023-03-02T14:57:29.803Z,73817.19
2023-03-02T15:00:00.130Z,73823.65
2023-03-02T15:02:28.916Z,73831.73
2023-03-02T15:04:57.795Z,73843.02
2023-03-02T15:07:28.200Z,73851.11
2023-03-02T15:09:58.294Z,73861.20
2023-03-02T15:12:27.362Z,73868.48
2023-03-02T15:14:57.674Z,73878.58
2023-03-02T15:17:26.887Z,73884.64
2023-03-02T15:19:55.231Z,73893.92
2023-03-02T15:22:23.682Z,73900.39
2023-03-02T15:24:52.056Z,73907.26
2023-03-02T15:27:22.850Z,73918.98
2023-03-02T15:29:51.376Z,73929.08
2023-03-02T15:32:20.267Z,73934.73
2023-03-02T15:34:48.609Z,73946.85
2023-03-02T15:37:17.303Z,73958.56
2023-03-02T15:39:45.818Z,73973.91
2023-03-02T15:42:14.217Z,73983.60
2023-03-02T15:44:42.630Z,73995.31
2023-03-02T15:47:11.402Z,74005.82
2023-03-02T15:49:40.031Z,74022.79
2023-03-02T15:52:10.017Z,74031.67
2023-03-02T15:54:38.381Z,74039.34
2023-03-02T15:57:07.463Z,74050.66
2023-03-02T15:59:36.079Z,74056.72
2023-03-02T16:02:04.646Z,74068.84
2023-03-02T16:04:34.219Z,74081.35
2023-03-02T16:07:02.854Z,74099.54
2023-03-02T16:09:31.612Z,74111.66
2023-03-02T16:12:00.095Z,74127.81
2023-03-02T16:14:28.826Z,74135.89
2023-03-02T16:16:57.346Z,74149.63
2023-03-02T16:19:25.901Z,74167.00
2023-03-02T16:21:54.270Z,74185.17
2023-03-02T16:24:22.732Z,74191.23
2023-03-02T16:26:53.227Z,74190.43
2023-03-02T16:29:24.282Z,74196.48
2023-03-02T16:31:53.536Z,74209.01
2023-03-02T16:34:21.930Z,74217.90
2023-03-02T16:36:50.297Z,74234.05
2023-03-02T16:39:18.767Z,74251.02
2023-03-02T16:41:47.541Z,74270.41
2023-03-02T16:44:17.485Z,74286.16
2023-03-02T16:46:46.426Z,74305.55
2023-03-02T16:49:15.035Z,74325.76
2023-03-02T16:51:44.042Z,74345.95
2023-03-02T16:54:16.228Z,74367.36
2023-03-02T16:56:47.528Z,74385.14
2023-03-02T16:59:18.525Z,74395.65
2023-03-02T17:01:46.958Z,74404.94
2023-03-02T17:04:18.538Z,74417.86
2023-03-02T17:07:03.127Z,74430.79
2023-03-02T17:09:34.521Z,74448.56
2023-03-02T17:12:03.384Z,74459.88
2023-03-02T17:14:31.743Z,74467.55
2023-03-02T17:17:01.484Z,74466.34
2023-03-02T17:19:29.994Z,74469.98
2023-03-02T17:22:03.623Z,74477.24
2023-03-02T17:24:33.412Z,74481.29
2023-03-02T17:27:02.096Z,74488.56
2023-03-02T17:29:30.516Z,74497.05
2023-03-02T17:31:58.948Z,74505.93
2023-03-02T17:34:31.294Z,74511.19
2023-03-02T17:37:00.937Z,74515.23
2023-03-02T17:39:29.540Z,74523.70
2023-03-02T17:41:57.941Z,74532.19
2023-03-02T17:44:27.660Z,74544.71
2023-03-02T17:46:56.025Z,74554.81
2023-03-02T17:49:24.381Z,74565.73
2023-03-02T17:51:52.783Z,74573.00
2023-03-02T17:54:21.305Z,74584.71
2023-03-02T17:56:49.678Z,74594.41
2023-03-02T17:59:18.078Z,74608.15
2023-03-02T18:01:46.513Z,74618.24
2023-03-02T18:04:15.088Z,74627.94
2023-03-02T18:06:43.594Z,74633.20
2023-03-02T18:09:12.190Z,74638.04
2023-03-02T18:11:43.955Z,74638.45
2023-03-02T18:14:17.682Z,74644.50
2023-03-02T18:16:46.664Z,74652.58
2023-03-02T18:19:15.122Z,74663.49
2023-03-02T18:21:43.509Z,74666.73
2023-03-02T18:24:12.061Z,74671.17
2023-03-02T18:26:40.887Z,74672.38
2023-03-02T18:29:09.560Z,74674.80
2023-03-02T18:31:38.078Z,74682.89
2023-03-02T18:34:06.685Z,74689.35
2023-03-02T18:36:35.152Z,74695.01
2023-03-02T18:39:04.248Z,74700.66
2023-03-02T18:41:32.962Z,74711.16
2023-03-02T18:44:02.780Z,74718.84
2023-03-02T18:46:33.315Z,74733.39
2023-03-02T18:49:01.920Z,74740.66
2023-03-02T18:51:31.556Z,74745.11
2023-03-02T18:54:00.103Z,74747.13
2023-03-02T18:56:28.608Z,74745.10
2023-03-02T18:58:57.065Z,74744.70
2023-03-02T19:01:25.530Z,74740.26
2023-03-02T19:03:56.954Z,74741.88
2023-03-02T19:06:25.555Z,74742.27
2023-03-02T19:08:54.354Z,74748.73
2023-03-02T19:11:23.028Z,74756.42
2023-03-02T19:13:52.107Z,74760.05
2023-03-02T19:16:20.832Z,74767.33
2023-03-02T19:18:50.233Z,74772.98
2023-03-02T19:21:19.240Z,74781.46
2023-03-02T19:23:48.281Z,74788.34
2023-03-02T19:26:17.412Z,74801.67
2023-03-02T19:28:46.513Z,74812.58
2023-03-02T19:31:16.108Z,74820.26
2023-03-02T19:33:45.500Z,74822.27
2023-03-02T19:36:14.598Z,74823.89
2023-03-02T19:38:44.615Z,74829.95
2023-03-02T19:41:16.793Z,74838.44
2023-03-02T19:43:46.223Z,74841.26
2023-03-02T19:46:16.203Z,74843.69
2023-03-02T19:48:45.129Z,74848.13
2023-03-02T19:51:15.411Z,74847.33
2023-03-02T19:53:46.111Z,74845.70
2023-03-02T19:56:16.369Z,74847.73
2023-03-02T19:58:50.398Z,74850.95
2023-03-02T20:01:24.834Z,74846.91
2023-03-02T20:03:54.681Z,74844.09
2023-03-02T20:06:26.365Z,74845.70
2023-03-02T20:08:54.835Z,74844.90
2023-03-02T20:11:25.220Z,74839.65
2023-03-02T20:13:53.708Z,74836.42
2023-03-02T20:16:23.016Z,74834.80
2023-03-02T20:18:52.519Z,74831.16
2023-03-02T20:21:21.427Z,74829.14
2023-03-02T20:23:50.663Z,74823.08
2023-03-02T20:26:19.484Z,74825.51
2023-03-02T20:28:48.552Z,74821.87
2023-03-02T20:31:18.193Z,74819.45
2023-03-02T20:33:50.230Z,74817.02
2023-03-02T20:36:26.837Z,74817.42
2023-03-02T20:39:09.720Z,74817.83
2023-03-02T20:41:38.627Z,74814.59
2023-03-02T20:44:08.032Z,74810.55
2023-03-02T20:46:40.615Z,74812.98
2023-03-02T20:49:10.924Z,74812.98
2023-03-02T20:51:41.128Z,74811.77
2023-03-02T20:54:10.146Z,74811.77
2023-03-02T20:56:38.563Z,74806.11
2023-03-02T20:59:07.096Z,74804.50
2023-03-02T21:01:35.794Z,74800.45
2023-03-02T21:04:04.557Z,74798.43
2023-03-02T21:06:34.816Z,74793.17
2023-03-02T21:09:05.926Z,74784.30
2023-03-02T21:11:35.394Z,74776.21
2023-03-02T21:14:04.083Z,74770.96
2023-03-02T21:16:37.225Z,74766.92
2023-03-02T21:19:08.607Z,74763.29
2023-03-02T21:21:42.095Z,74756.42
2023-03-02T21:24:13.516Z,74751.98
2023-03-02T21:26:44.391Z,74748.73
2023-03-02T21:29:13.655Z,74742.27
2023-03-02T21:31:43.960Z,74738.64
2023-03-02T21:34:13.533Z,74730.96
2023-03-02T21:36:43.539Z,74726.52
2023-03-02T21:39:12.208Z,74714.80
2023-03-02T21:41:40.753Z,74705.52
2023-03-02T21:44:09.938Z,74705.52
2023-03-02T21:46:39.687Z,74702.27
2023-03-02T21:49:08.228Z,74700.25
2023-03-02T21:51:37.168Z,74703.90
2023-03-02T21:54:05.748Z,74705.91
2023-03-02T21:56:34.248Z,74707.13
2023-03-02T21:59:04.188Z,74706.72
2023-03-02T22:01:33.979Z,74703.48
2023-03-02T22:04:02.564Z,74701.06
2023-03-02T22:06:33.248Z,74696.22
2023-03-02T22:09:02.687Z,74687.73
2023-03-02T22:11:34.839Z,74679.66
2023-03-02T22:14:13.054Z,74669.15
2023-03-02T22:16:45.212Z,74657.02
2023-03-02T22:19:32.746Z,74654.61
2023-03-02T22:22:03.469Z,74644.50
2023-03-02T22:24:34.064Z,74638.85
2023-03-02T22:27:21.168Z,74634.41
2023-03-02T22:29:50.870Z,74626.73
2023-03-02T22:32:24.114Z,74623.09
2023-03-02T22:34:58.673Z,74621.07
2023-03-02T22:37:29.354Z,74616.63
2023-03-02T22:40:02.089Z,74613.80
2023-03-02T22:42:31.216Z,74613.80
2023-03-02T22:45:06.787Z,74608.55
2023-03-02T22:47:35.214Z,74605.72
2023-03-02T22:50:22.529Z,74616.23
2023-03-02T22:52:51.837Z,74623.90
2023-03-02T22:55:35.660Z,74629.56
2023-03-02T22:58:30.954Z,74632.80
2023-03-02T23:01:00.933Z,74636.02
2023-03-02T23:03:41.018Z,74637.64
2023-03-02T23:06:47.371Z,74642.08
2023-03-02T23:09:21.176Z,74642.89
2023-03-02T23:11:51.128Z,74643.29
2023-03-02T23:14:30.177Z,74646.92
2023-03-02T23:17:22.260Z,74644.51
2023-03-02T23:19:51.529Z,74641.67
2023-03-02T23:22:20.077Z,74643.29
2023-03-02T23:24:48.647Z,74641.27
2023-03-02T23:27:17.084Z,74637.23
2023-03-02T23:29:45.543Z,74628.74
2023-03-02T23:32:14.703Z,74625.11
2023-03-02T23:34:43.416Z,74621.48
2023-03-02T23:37:12.068Z,74617.02
2023-03-02T23:39:40.542Z,74613.40
2023-03-02T23:42:09.364Z,74604.10
2023-03-02T23:44:37.821Z,74600.46
2023-03-02T23:47:06.291Z,74591.98
2023-03-02T23:49:34.736Z,74585.12
2023-03-02T23:52:03.774Z,74582.30
2023-03-02T23:54:32.183Z,74576.64
2023-03-02T23:57:00.671Z,74579.46
2023-03-02T23:59:29.216Z,74586.73
